createdAt,value
2023-04-27T00:00:53.279Z,200.84
2023-04-27T00:01:53.367Z,203.54
2023-04-27T00:02:53.607Z,201.99
2023-04-27T00:03:53.595Z,200.61
2023-04-27T00:04:53.901Z,201.10
2023-04-27T00:05:53.705Z,200.96
2023-04-27T00:06:53.638Z,201.23
2023-04-27T00:07:53.716Z,202.41
2023-04-27T00:08:53.776Z,199.27
2023-04-27T00:09:53.827Z,201.04
2023-04-27T00:10:53.893Z,200.26
2023-04-27T00:11:53.952Z,201.18
2023-04-27T00:12:54.002Z,199.13
2023-04-27T00:13:54.063Z,198.06
2023-04-27T00:14:54.133Z,197.39
2023-04-27T00:15:54.250Z,200.94
2023-04-27T00:16:54.238Z,201.06
2023-04-27T00:17:54.350Z,198.82
2023-04-27T00:18:54.376Z,200.47
2023-04-27T00:19:54.430Z,199.40
2023-04-27T00:20:54.492Z,200.87
2023-04-27T00:21:54.548Z,201.67
2023-04-27T00:22:54.621Z,198.18
2023-04-27T00:23:54.698Z,198.84
2023-04-27T00:24:54.747Z,197.69
2023-04-27T00:25:54.798Z,198.17
2023-04-27T00:26:54.859Z,198.67
2023-04-27T00:27:54.929Z,198.42
2023-04-27T00:28:54.995Z,196.88
2023-04-27T00:29:55.070Z,198.00
2023-04-27T00:30:55.115Z,198.15
2023-04-27T00:31:55.231Z,197.32
2023-04-27T00:32:55.179Z,197.51
2023-04-27T00:33:55.167Z,197.45
2023-04-27T00:34:55.155Z,198.03
2023-04-27T00:35:55.149Z,198.08
2023-04-27T00:36:55.149Z,196.54
2023-04-27T00:37:55.123Z,199.08
2023-04-27T00:38:55.145Z,197.33
2023-04-27T00:39:55.119Z,196.82
2023-04-27T00:40:55.102Z,196.05
2023-04-27T00:41:55.153Z,196.60
2023-04-27T00:42:55.233Z,195.49
2023-04-27T00:43:55.295Z,197.47
2023-04-27T00:44:55.344Z,194.99
2023-04-27T00:45:55.457Z,197.68
2023-04-27T00:46:55.440Z,198.15
2023-04-27T00:47:55.499Z,196.52
2023-04-27T00:48:55.512Z,195.64
2023-04-27T00:49:55.573Z,197.11
2023-04-27T00:50:55.630Z,195.24
2023-04-27T00:51:55.655Z,194.42
2023-04-27T00:52:55.716Z,195.95
2023-04-27T00:53:55.769Z,195.21
2023-04-27T00:54:55.838Z,195.24
2023-04-27T00:55:55.872Z,194.45
2023-04-27T00:56:55.910Z,196.45
2023-04-27T00:57:55.981Z,197.54
2023-04-27T00:58:56.038Z,196.69
2023-04-27T00:59:56.077Z,194.52
2023-04-27T01:00:56.150Z,196.71
2023-04-27T01:01:56.214Z,197.53
2023-04-27T01:02:56.395Z,196.88
2023-04-27T01:03:56.465Z,195.08
2023-04-27T01:04:56.392Z,198.54
2023-04-27T01:05:56.421Z,197.04
2023-04-27T01:06:56.486Z,196.57
2023-04-27T01:07:56.534Z,194.78
2023-04-27T01:08:56.538Z,195.04
2023-04-27T01:09:56.567Z,194.73
2023-04-27T01:10:56.607Z,193.71
2023-04-27T01:11:56.568Z,193.85
2023-04-27T01:12:56.544Z,194.77
2023-04-27T01:13:56.541Z,194.71
2023-04-27T01:14:56.539Z,195.50
2023-04-27T01:15:56.514Z,194.58
2023-04-27T01:16:56.554Z,196.56
2023-04-27T01:17:56.517Z,194.44
2023-04-27T01:18:56.476Z,193.62
2023-04-27T01:19:56.479Z,192.45
2023-04-27T01:20:56.460Z,193.57
2023-04-27T01:21:56.452Z,194.23
2023-04-27T01:22:56.429Z,194.06
2023-04-27T01:23:56.452Z,191.43
2023-04-27T01:24:56.533Z,192.49
2023-04-27T01:25:56.492Z,195.32
2023-04-27T01:26:56.504Z,193.73
2023-04-27T01:27:56.484Z,192.20
2023-04-27T01:28:56.493Z,193.85
2023-04-27T01:29:56.481Z,191.08
2023-04-27T01:30:56.524Z,192.55
2023-04-27T01:31:56.502Z,193.83
2023-04-27T01:32:56.551Z,191.31
2023-04-27T01:33:56.565Z,193.19
2023-04-27T01:34:56.586Z,192.20
2023-04-27T01:35:56.589Z,191.26
2023-04-27T01:36:56.606Z,193.94
2023-04-27T01:37:56.628Z,191.32
2023-04-27T01:38:56.607Z,192.59
2023-04-27T01:39:56.620Z,192.09
2023-04-27T01:40:56.650Z,190.16
2023-04-27T01:41:58.333Z,195.10
2023-04-27T01:42:56.636Z,191.07
2023-04-27T01:43:56.635Z,193.79
2023-04-27T01:44:56.665Z,194.10
2023-04-27T01:45:56.712Z,194.07
2023-04-27T01:46:56.731Z,195.15
2023-04-27T01:47:56.766Z,192.43
2023-04-27T01:48:56.780Z,190.45
2023-04-27T01:49:56.806Z,193.26
2023-04-27T01:50:56.847Z,192.15
2023-04-27T01:51:56.869Z,191.59
2023-04-27T01:52:56.916Z,190.15
2023-04-27T01:53:56.996Z,193.68
2023-04-27T01:54:57.019Z,191.53
2023-04-27T01:55:57.051Z,192.01
2023-04-27T01:56:57.104Z,191.26
2023-04-27T01:57:57.134Z,190.06
2023-04-27T01:58:57.161Z,192.70
2023-04-27T01:59:57.212Z,192.56
2023-04-27T02:00:57.247Z,188.15
2023-04-27T02:01:57.300Z,190.21
2023-04-27T02:02:57.492Z,189.30
2023-04-27T02:03:57.458Z,190.61
2023-04-27T02:04:57.377Z,193.16
2023-04-27T02:05:57.377Z,190.31
2023-04-27T02:06:57.354Z,190.48
2023-04-27T02:07:57.345Z,190.95
2023-04-27T02:08:57.342Z,190.40
2023-04-27T02:09:57.335Z,192.57
2023-04-27T02:10:57.331Z,191.49
2023-04-27T02:11:57.318Z,191.68
2023-04-27T02:12:57.323Z,191.91
2023-04-27T02:13:57.308Z,192.78
2023-04-27T02:14:57.329Z,191.59
2023-04-27T02:15:57.374Z,190.98
2023-04-27T02:16:57.377Z,190.99
2023-04-27T02:17:57.430Z,189.26
2023-04-27T02:18:57.443Z,192.01
2023-04-27T02:19:57.463Z,190.42
2023-04-27T02:20:57.505Z,192.73
2023-04-27T02:21:57.511Z,189.60
2023-04-27T02:22:57.547Z,190.65
2023-04-27T02:23:57.563Z,188.89
2023-04-27T02:24:57.579Z,188.66
2023-04-27T02:25:57.628Z,189.22
2023-04-27T02:26:57.632Z,193.47
2023-04-27T02:27:57.649Z,193.07
2023-04-27T02:28:57.672Z,191.81
2023-04-27T02:29:57.691Z,188.80
2023-04-27T02:30:57.690Z,189.84
2023-04-27T02:31:57.755Z,187.96
2023-04-27T02:32:57.785Z,189.54
2023-04-27T02:33:57.712Z,186.02
2023-04-27T02:34:57.712Z,188.47
2023-04-27T02:35:57.734Z,187.19
2023-04-27T02:36:57.704Z,187.42
2023-04-27T02:37:57.700Z,188.09
2023-04-27T02:38:57.703Z,188.82
2023-04-27T02:39:57.925Z,188.80
2023-04-27T02:40:57.689Z,191.24
2023-04-27T02:41:57.685Z,189.74
2023-04-27T02:42:57.684Z,191.84
2023-04-27T02:43:57.661Z,188.76
2023-04-27T02:44:57.659Z,187.78
2023-04-27T02:45:57.627Z,188.53
2023-04-27T02:46:57.694Z,188.17
2023-04-27T02:47:57.653Z,189.59
2023-04-27T02:48:57.599Z,187.48
2023-04-27T02:49:57.611Z,187.71
2023-04-27T02:50:57.583Z,189.54
2023-04-27T02:51:57.585Z,185.99
2023-04-27T02:52:57.584Z,188.39
2023-04-27T02:53:57.570Z,185.16
2023-04-27T02:54:57.566Z,185.79
2023-04-27T02:55:57.556Z,186.76
2023-04-27T02:56:57.593Z,187.81
2023-04-27T02:57:57.612Z,188.17
2023-04-27T02:58:57.634Z,187.79
2023-04-27T02:59:57.665Z,187.75
2023-04-27T03:00:57.859Z,171.31
2023-04-27T03:01:57.727Z,159.52
2023-04-27T03:02:57.879Z,141.52
2023-04-27T03:03:57.893Z,127.32
2023-04-27T03:04:57.751Z,113.33
2023-04-27T03:05:57.728Z,98.36
2023-04-27T03:06:57.757Z,73.37
2023-04-27T03:07:57.762Z,58.22
2023-04-27T03:08:57.800Z,38.24
2023-04-27T03:09:57.830Z,25.00
2023-04-27T03:10:57.874Z,23.15
2023-04-27T03:11:57.930Z,25.00
2023-04-27T03:12:57.992Z,24.27
2023-04-27T03:13:58.064Z,25.81
2023-04-27T03:14:58.138Z,25.00
2023-04-27T03:15:58.229Z,24.75
2023-04-27T03:16:58.281Z,25.00
2023-04-27T03:17:58.349Z,25.81
2023-04-27T03:18:58.384Z,23.78
2023-04-27T03:19:58.449Z,25.00
2023-04-27T03:20:58.488Z,24.68
2023-04-27T03:21:58.537Z,25.00
2023-04-27T03:22:58.607Z,25.00
2023-04-27T03:23:58.624Z,24.86
2023-04-27T03:24:58.650Z,26.16
2023-04-27T03:25:58.637Z,25.00
2023-04-27T03:26:58.637Z,25.00
2023-04-27T03:27:58.641Z,25.08
2023-04-27T03:28:58.638Z,26.23
2023-04-27T03:29:58.649Z,25.00
2023-04-27T03:30:58.676Z,25.57
2023-04-27T03:31:58.730Z,25.36
2023-04-27T03:32:58.763Z,25.53
2023-04-27T03:33:58.701Z,25.00
2023-04-27T03:34:58.716Z,24.70
2023-04-27T03:35:58.731Z,25.50
2023-04-27T03:36:58.752Z,24.89
2023-04-27T03:37:58.781Z,25.00
2023-04-27T03:38:58.824Z,25.00
2023-04-27T03:39:58.873Z,26.80
2023-04-27T03:40:58.874Z,25.00
2023-04-27T03:41:58.907Z,25.84
2023-04-27T03:42:59.236Z,25.00
2023-04-27T03:43:58.972Z,25.00
2023-04-27T03:44:59.016Z,25.65
2023-04-27T03:45:59.037Z,24.62
2023-04-27T03:46:59.012Z,20.96
2023-04-27T03:47:59.065Z,19.45
2023-04-27T03:48:59.017Z,17.60
2023-04-27T03:49:59.020Z,14.80
2023-04-27T03:50:59.020Z,25.20
2023-04-27T03:51:59.016Z,25.77
2023-04-27T03:52:59.021Z,28.48
2023-04-27T03:53:59.018Z,26.96
2023-04-27T03:54:59.026Z,26.95
2023-04-27T03:55:59.027Z,25.24
2023-04-27T03:56:59.029Z,25.32
2023-04-27T03:57:59.035Z,25.22
2023-04-27T03:58:59.031Z,25.00
2023-04-27T03:59:59.055Z,25.16
2023-04-27T04:00:59.098Z,25.00
2023-04-27T04:02:01.152Z,25.87
2023-04-27T04:02:59.401Z,25.00
2023-04-27T04:03:59.348Z,25.24
2023-04-27T04:04:59.377Z,26.26
2023-04-27T04:05:59.349Z,28.02
2023-04-27T04:06:59.407Z,29.22
2023-04-27T04:07:59.466Z,31.26
2023-04-27T04:08:59.533Z,32.33
2023-04-27T04:09:59.603Z,34.42
2023-04-27T04:10:59.672Z,36.95
2023-04-27T04:11:59.729Z,38.36
2023-04-27T04:12:59.796Z,40.16
2023-04-27T04:13:59.855Z,41.21
2023-04-27T04:14:59.936Z,43.11
2023-04-27T04:16:00.008Z,43.43
2023-04-27T04:16:59.999Z,42.63
2023-04-27T04:18:00.020Z,41.36
2023-04-27T04:19:00.013Z,40.49
2023-04-27T04:20:00.018Z,39.65
2023-04-27T04:21:00.014Z,38.33
2023-04-27T04:22:00.034Z,36.71
2023-04-27T04:23:00.036Z,34.36
2023-04-27T04:24:00.027Z,32.77
2023-04-27T04:25:00.033Z,31.62
2023-04-27T04:26:00.031Z,28.87
2023-04-27T04:27:00.102Z,28.42
2023-04-27T04:28:00.199Z,29.03
2023-04-27T04:29:00.246Z,30.21
2023-04-27T04:30:00.308Z,32.84
2023-04-27T04:31:00.396Z,34.78
2023-04-27T04:32:00.434Z,36.44
2023-04-27T04:33:00.562Z,36.90
2023-04-27T04:34:00.615Z,35.98
2023-04-27T04:35:00.659Z,34.40
2023-04-27T04:36:00.722Z,32.06
2023-04-27T04:37:00.765Z,29.55
2023-04-27T04:38:00.853Z,27.32
2023-04-27T04:39:00.906Z,25.29
2023-04-27T04:40:00.983Z,25.25
2023-04-27T04:41:01.095Z,25.00
2023-04-27T04:42:01.117Z,25.28
2023-04-27T04:43:01.182Z,25.17
2023-04-27T04:44:01.263Z,25.53
2023-04-27T04:45:01.343Z,26.30
2023-04-27T04:46:01.416Z,27.69
2023-04-27T04:47:01.521Z,29.61
2023-04-27T04:48:01.679Z,30.97
2023-04-27T04:49:01.610Z,31.67
2023-04-27T04:50:01.673Z,32.42
2023-04-27T04:51:01.724Z,33.34
2023-04-27T04:52:01.778Z,33.75
2023-04-27T04:53:01.813Z,35.36
2023-04-27T04:54:02.266Z,36.89
2023-04-27T04:55:01.956Z,39.41
2023-04-27T04:56:02.010Z,40.85
2023-04-27T04:57:02.061Z,42.55
2023-04-27T04:58:02.128Z,43.77
2023-04-27T04:59:02.158Z,45.42
2023-04-27T05:00:02.219Z,47.24
2023-04-27T05:01:02.205Z,48.91
2023-04-27T05:02:02.278Z,50.15
2023-04-27T05:03:02.446Z,50.45
2023-04-27T05:04:02.433Z,51.58
2023-04-27T05:05:02.309Z,51.63
2023-04-27T05:06:02.317Z,52.02
2023-04-27T05:07:02.332Z,53.03
2023-04-27T05:08:02.341Z,56.26
2023-04-27T05:09:02.349Z,65.64
2023-04-27T05:10:02.354Z,72.39
2023-04-27T05:11:02.364Z,77.35
2023-04-27T05:12:02.366Z,82.63
2023-04-27T05:13:02.381Z,87.97
2023-04-27T05:14:02.430Z,92.97
2023-04-27T05:15:02.529Z,96.93
2023-04-27T05:16:02.556Z,100.25
2023-04-27T05:17:02.559Z,104.76
2023-04-27T05:18:02.656Z,107.91
2023-04-27T05:19:02.639Z,110.81
2023-04-27T05:20:02.771Z,114.49
2023-04-27T05:21:02.696Z,116.55
2023-04-27T05:22:02.700Z,120.04
2023-04-27T05:23:02.711Z,122.08
2023-04-27T05:24:02.711Z,124.73
2023-04-27T05:25:02.723Z,125.93
2023-04-27T05:26:02.735Z,127.95
2023-04-27T05:27:02.716Z,129.98
2023-04-27T05:28:02.748Z,131.19
2023-04-27T05:29:02.732Z,131.28
2023-04-27T05:30:02.724Z,131.59
2023-04-27T05:31:02.768Z,132.42
2023-04-27T05:32:02.808Z,135.32
2023-04-27T05:33:02.967Z,141.86
2023-04-27T05:34:02.772Z,145.08
2023-04-27T05:35:02.796Z,146.11
2023-04-27T05:36:02.795Z,149.87
2023-04-27T05:37:02.735Z,150.04
2023-04-27T05:38:02.734Z,150.09
2023-04-27T05:39:02.740Z,150.66
2023-04-27T05:40:02.798Z,153.00
2023-04-27T05:41:02.841Z,154.54
2023-04-27T05:42:03.001Z,155.74
2023-04-27T05:43:03.258Z,159.86
2023-04-27T05:44:03.012Z,162.78
2023-04-27T05:45:03.055Z,166.55
2023-04-27T05:46:03.085Z,166.73
2023-04-27T05:47:03.054Z,167.58
2023-04-27T05:48:03.110Z,169.35
2023-04-27T05:49:03.194Z,172.89
2023-04-27T05:50:03.073Z,179.80
2023-04-27T05:51:03.126Z,180.06
2023-04-27T05:52:03.083Z,179.45
2023-04-27T05:53:03.095Z,136.55
2023-04-27T05:54:03.098Z,114.87
2023-04-27T05:55:04.095Z,94.78
2023-04-27T05:56:03.161Z,78.23
2023-04-27T05:57:03.133Z,65.25
2023-04-27T05:58:08.322Z,55.67
2023-04-27T05:59:04.186Z,51.69
2023-04-27T06:00:03.183Z,42.71
2023-04-27T06:01:03.218Z,37.01
2023-04-27T06:02:03.292Z,33.04
2023-04-27T06:03:03.378Z,27.38
2023-04-27T06:04:03.428Z,25.00
2023-04-27T06:05:03.325Z,25.41
2023-04-27T06:06:03.350Z,28.90
2023-04-27T06:07:03.330Z,32.88
2023-04-27T06:08:03.356Z,32.99
2023-04-27T06:09:03.370Z,28.35
2023-04-27T06:10:03.394Z,23.15
2023-04-27T06:11:03.452Z,22.48
2023-04-27T06:12:03.436Z,23.83
2023-04-27T06:13:03.465Z,24.31
2023-04-27T06:14:03.484Z,24.84
2023-04-27T06:15:03.505Z,33.24
2023-04-27T06:16:03.608Z,34.09
2023-04-27T06:17:03.548Z,35.65
2023-04-27T06:18:03.609Z,45.19
2023-04-27T06:19:03.593Z,47.94
2023-04-27T06:20:03.641Z,51.13
2023-04-27T06:21:03.651Z,55.66
2023-04-27T06:22:03.691Z,56.21
2023-04-27T06:23:03.723Z,54.63
2023-04-27T06:24:03.770Z,52.51
2023-04-27T06:25:03.859Z,51.90
2023-04-27T06:26:03.958Z,51.22
2023-04-27T06:27:04.037Z,51.20
2023-04-27T06:28:04.110Z,43.45
2023-04-27T06:29:04.214Z,44.62
2023-04-27T06:30:04.281Z,46.14
2023-04-27T06:31:04.386Z,35.56
2023-04-27T06:32:04.549Z,26.54
2023-04-27T06:33:04.660Z,21.71
2023-04-27T06:34:04.681Z,24.21
2023-04-27T06:35:04.821Z,24.00
2023-04-27T06:36:04.873Z,25.12
2023-04-27T06:37:04.943Z,25.00
2023-04-27T06:38:07.587Z,25.02
2023-04-27T06:39:05.054Z,25.53
2023-04-27T06:40:05.169Z,25.06
2023-04-27T06:41:05.112Z,24.90
2023-04-27T06:42:05.131Z,43.12
2023-04-27T06:43:05.155Z,64.36
2023-04-27T06:44:05.176Z,64.83
2023-04-27T06:45:05.202Z,68.44
2023-04-27T06:46:05.294Z,77.88
2023-04-27T06:47:05.224Z,65.98
2023-04-27T06:48:05.293Z,71.44
2023-04-27T06:49:05.260Z,83.73
2023-04-27T06:50:05.266Z,97.78
2023-04-27T06:51:05.314Z,125.91
2023-04-27T06:52:05.282Z,135.59
2023-04-27T06:53:05.284Z,136.78
2023-04-27T06:54:05.291Z,141.98
2023-04-27T06:55:05.301Z,142.18
2023-04-27T06:56:05.320Z,151.92
2023-04-27T06:57:05.313Z,151.47
2023-04-27T06:58:05.317Z,140.12
2023-04-27T06:59:05.316Z,148.73
2023-04-27T07:00:05.370Z,155.30
2023-04-27T07:01:05.404Z,148.23
2023-04-27T07:02:05.342Z,135.42
2023-04-27T07:03:05.465Z,141.50
2023-04-27T07:04:05.499Z,142.89
2023-04-27T07:05:05.395Z,145.99
2023-04-27T07:06:05.423Z,135.78
2023-04-27T07:07:05.381Z,122.71
2023-04-27T07:08:08.207Z,122.06
2023-04-27T07:09:13.178Z,113.98
2023-04-27T07:10:06.391Z,114.43
2023-04-27T07:11:05.424Z,114.29
2023-04-27T07:12:05.425Z,109.43
2023-04-27T07:13:07.356Z,105.72
2023-04-27T07:14:05.761Z,114.70
2023-04-27T07:15:05.435Z,122.47
2023-04-27T07:16:05.479Z,109.26
2023-04-27T07:17:05.446Z,111.57
2023-04-27T07:18:05.550Z,109.45
2023-04-27T07:19:05.453Z,109.49
2023-04-27T07:20:05.533Z,109.19
2023-04-27T07:21:05.484Z,110.49
2023-04-27T07:22:05.475Z,103.98
2023-04-27T07:23:05.487Z,109.19
2023-04-27T07:24:05.490Z,106.47
2023-04-27T07:25:06.201Z,106.95
2023-04-27T07:26:05.500Z,111.38
2023-04-27T07:27:05.512Z,109.52
2023-04-27T07:28:05.506Z,112.78
2023-04-27T07:29:14.462Z,113.67
2023-04-27T07:30:06.543Z,113.77
2023-04-27T07:31:05.525Z,111.12
2023-04-27T07:32:05.614Z,113.83
2023-04-27T07:33:05.553Z,116.36
2023-04-27T07:34:05.518Z,118.45
2023-04-27T07:35:05.554Z,112.38
2023-04-27T07:36:05.528Z,109.30
2023-04-27T07:37:05.521Z,109.21
2023-04-27T07:38:05.510Z,109.46
2023-04-27T07:39:05.499Z,110.63
2023-04-27T07:40:05.497Z,113.77
2023-04-27T07:41:05.489Z,114.05
2023-04-27T07:42:05.500Z,118.99
2023-04-27T07:43:05.513Z,109.57
2023-04-27T07:44:05.474Z,105.34
2023-04-27T07:45:05.463Z,103.01
2023-04-27T07:46:05.486Z,99.89
2023-04-27T07:47:05.463Z,99.14
2023-04-27T07:48:05.509Z,98.28
2023-04-27T07:49:05.466Z,96.19
2023-04-27T07:50:05.441Z,96.07
2023-04-27T07:51:05.504Z,95.41
2023-04-27T07:52:05.491Z,94.18
2023-04-27T07:53:05.438Z,94.21
2023-04-27T07:54:05.441Z,86.14
2023-04-27T07:55:05.435Z,86.59
2023-04-27T07:56:05.413Z,85.83
2023-04-27T07:57:05.419Z,84.96
2023-04-27T07:58:05.410Z,80.23
2023-04-27T07:59:05.398Z,80.14
2023-04-27T08:00:05.407Z,77.14
2023-04-27T08:01:05.446Z,75.37
2023-04-27T08:02:18.501Z,71.29
2023-04-27T08:03:06.595Z,70.77
2023-04-27T08:04:05.806Z,67.14
2023-04-27T08:05:05.580Z,68.29
2023-04-27T08:06:05.789Z,65.73
2023-04-27T08:07:06.029Z,63.24
2023-04-27T08:08:05.659Z,59.58
2023-04-27T08:09:05.448Z,58.45
2023-04-27T08:10:05.441Z,58.42
2023-04-27T08:11:05.353Z,53.58
2023-04-27T08:12:05.414Z,48.10
2023-04-27T08:13:05.334Z,47.75
2023-04-27T08:14:05.402Z,45.64
2023-04-27T08:15:05.568Z,41.75
2023-04-27T08:16:05.392Z,37.89
2023-04-27T08:17:05.396Z,34.93
2023-04-27T08:18:05.369Z,30.08
2023-04-27T08:19:05.311Z,26.33
2023-04-27T08:20:05.305Z,21.51
2023-04-27T08:21:05.312Z,16.90
2023-04-27T08:22:05.444Z,16.39
2023-04-27T08:23:05.289Z,16.89
2023-04-27T08:24:05.287Z,16.28
2023-04-27T08:25:05.294Z,19.94
2023-04-27T08:26:05.304Z,22.56
2023-04-27T08:27:05.324Z,25.00
2023-04-27T08:28:05.319Z,25.44
2023-04-27T08:29:15.284Z,25.13
2023-04-27T08:30:06.330Z,23.57
2023-04-27T08:31:05.385Z,24.98
2023-04-27T08:32:05.332Z,26.18
2023-04-27T08:33:05.411Z,31.51
2023-04-27T08:34:05.327Z,36.21
2023-04-27T08:35:05.331Z,39.60
2023-04-27T08:36:05.342Z,37.40
2023-04-27T08:37:05.330Z,43.15
2023-04-27T08:38:05.348Z,44.00
2023-04-27T08:39:05.355Z,47.96
2023-04-27T08:40:05.369Z,42.08
2023-04-27T08:41:18.314Z,53.20
2023-04-27T08:42:06.358Z,53.39
2023-04-27T08:43:05.355Z,54.10
2023-04-27T08:44:05.362Z,55.70
2023-04-27T08:45:05.382Z,59.35
2023-04-27T08:46:05.420Z,55.58
2023-04-27T08:47:05.361Z,53.50
2023-04-27T08:48:05.404Z,55.51
2023-04-27T08:49:05.360Z,55.75
2023-04-27T08:50:05.403Z,53.99
2023-04-27T08:51:05.377Z,52.11
2023-04-27T08:52:05.376Z,44.59
2023-04-27T08:53:05.368Z,36.32
2023-04-27T08:54:05.376Z,31.48
2023-04-27T08:55:05.394Z,27.79
2023-04-27T08:56:05.396Z,27.34
2023-04-27T08:57:05.383Z,26.04
2023-04-27T08:58:05.404Z,22.91
2023-04-27T08:59:05.381Z,18.62
2023-04-27T09:00:05.400Z,22.19
2023-04-27T09:01:05.387Z,28.45
2023-04-27T09:02:05.449Z,28.72
2023-04-27T09:03:05.527Z,32.29
2023-04-27T09:04:05.641Z,38.00
2023-04-27T09:05:05.597Z,37.92
2023-04-27T09:06:06.230Z,41.14
2023-04-27T09:07:05.384Z,42.56
2023-04-27T09:08:05.381Z,44.21
2023-04-27T09:09:05.364Z,43.07
2023-04-27T09:10:05.375Z,46.98
2023-04-27T09:11:05.384Z,52.33
2023-04-27T09:12:05.356Z,54.56
2023-04-27T09:13:05.382Z,55.38
2023-04-27T09:14:05.444Z,56.96
2023-04-27T09:15:05.513Z,57.55
2023-04-27T09:16:05.592Z,59.01
2023-04-27T09:17:05.632Z,64.32
2023-04-27T09:18:05.725Z,72.18
2023-04-27T09:19:05.752Z,69.83
2023-04-27T09:20:05.846Z,73.61
2023-04-27T09:21:05.849Z,84.69
2023-04-27T09:22:05.888Z,78.39
2023-04-27T09:23:05.996Z,84.82
2023-04-27T09:24:05.982Z,81.26
2023-04-27T09:25:06.033Z,78.01
2023-04-27T09:26:06.125Z,70.94
2023-04-27T09:27:06.127Z,66.54
2023-04-27T09:28:06.198Z,72.55
2023-04-27T09:29:06.244Z,78.62
2023-04-27T09:30:06.320Z,83.56
2023-04-27T09:31:06.374Z,91.62
2023-04-27T09:32:06.463Z,101.12
2023-04-27T09:33:06.538Z,105.63
2023-04-27T09:34:06.479Z,96.54
2023-04-27T09:35:06.460Z,95.73
2023-04-27T09:36:06.461Z,101.47
2023-04-27T09:37:06.447Z,99.10
2023-04-27T09:38:06.431Z,113.57
2023-04-27T09:39:06.430Z,113.41
2023-04-27T09:40:06.466Z,104.22
2023-04-27T09:41:06.426Z,106.87
2023-04-27T09:42:06.473Z,96.75
2023-04-27T09:43:06.408Z,91.01
2023-04-27T09:44:06.408Z,89.23
2023-04-27T09:45:06.395Z,86.43
2023-04-27T09:46:06.493Z,86.61
2023-04-27T09:47:06.395Z,84.19
2023-04-27T09:48:06.433Z,83.85
2023-04-27T09:49:06.386Z,84.89
2023-04-27T09:50:06.375Z,79.54
2023-04-27T09:51:06.374Z,76.04
2023-04-27T09:52:06.420Z,76.06
2023-04-27T09:53:06.351Z,68.93
2023-04-27T09:54:06.357Z,74.97
2023-04-27T09:55:06.348Z,76.63
2023-04-27T09:56:06.345Z,78.37
2023-04-27T09:57:06.335Z,84.75
2023-04-27T09:58:06.375Z,96.99
2023-04-27T09:59:06.309Z,115.47
2023-04-27T10:00:06.333Z,120.32
2023-04-27T10:01:06.362Z,122.74
2023-04-27T10:02:20.855Z,125.63
2023-04-27T10:03:07.354Z,125.81
2023-04-27T10:04:06.413Z,127.22
2023-04-27T10:05:06.299Z,130.86
2023-04-27T10:06:06.275Z,136.38
2023-04-27T10:07:06.260Z,145.99
2023-04-27T10:08:06.305Z,150.44
2023-04-27T10:09:06.308Z,148.56
2023-04-27T10:10:06.231Z,148.58
2023-04-27T10:11:06.249Z,151.28
2023-04-27T10:12:06.214Z,154.59
2023-04-27T10:13:06.214Z,157.83
2023-04-27T10:14:06.204Z,157.49
2023-04-27T10:15:06.207Z,159.43
2023-04-27T10:16:06.202Z,162.22
2023-04-27T10:17:06.260Z,165.37
2023-04-27T10:18:06.275Z,168.13
2023-04-27T10:19:06.156Z,171.28
2023-04-27T10:20:06.157Z,173.87
2023-04-27T10:21:06.158Z,173.97
2023-04-27T10:22:06.119Z,174.48
2023-04-27T10:23:06.098Z,175.57
2023-04-27T10:24:06.099Z,179.03
2023-04-27T10:25:06.088Z,182.21
2023-04-27T10:26:06.105Z,182.19
2023-04-27T10:27:06.076Z,181.94
2023-04-27T10:28:06.067Z,181.80
2023-04-27T10:29:06.055Z,181.97
2023-04-27T10:30:06.040Z,182.48
2023-04-27T10:31:06.082Z,182.95
2023-04-27T10:32:06.028Z,182.18
2023-04-27T10:33:06.049Z,182.84
2023-04-27T10:34:06.023Z,182.56
2023-04-27T10:35:05.981Z,179.36
2023-04-27T10:36:05.977Z,178.82
2023-04-27T10:37:05.970Z,178.23
2023-04-27T10:38:05.952Z,176.16
2023-04-27T10:39:05.940Z,175.47
2023-04-27T10:40:05.964Z,174.93
2023-04-27T10:41:05.922Z,176.83
2023-04-27T10:42:05.919Z,179.67
2023-04-27T10:43:05.922Z,179.06
2023-04-27T10:44:05.900Z,175.19
2023-04-27T10:45:05.897Z,173.16
2023-04-27T10:46:05.929Z,172.88
2023-04-27T10:47:05.873Z,173.32
2023-04-27T10:48:05.896Z,174.85
2023-04-27T10:49:05.881Z,174.95
2023-04-27T10:50:05.884Z,178.35
2023-04-27T10:51:05.840Z,178.80
2023-04-27T10:52:05.845Z,179.94
2023-04-27T10:53:05.825Z,180.62
2023-04-27T10:54:05.811Z,182.79
2023-04-27T10:55:05.805Z,181.17
2023-04-27T10:56:05.811Z,181.36
2023-04-27T10:57:05.799Z,181.34
2023-04-27T10:58:05.783Z,181.65
2023-04-27T10:59:05.824Z,181.90
2023-04-27T11:00:05.765Z,183.88
2023-04-27T11:01:05.779Z,184.97
2023-04-27T11:02:05.852Z,180.10
2023-04-27T11:03:05.910Z,174.48
2023-04-27T11:04:05.796Z,171.56
2023-04-27T11:05:05.814Z,170.77
2023-04-27T11:06:05.841Z,169.15
2023-04-27T11:07:05.802Z,166.74
2023-04-27T11:08:05.809Z,168.60
2023-04-27T11:09:05.820Z,171.71
2023-04-27T11:10:06.717Z,174.24
2023-04-27T11:11:05.827Z,174.28
2023-04-27T11:12:05.961Z,174.56
2023-04-27T11:13:05.780Z,175.47
2023-04-27T11:14:05.785Z,176.10
2023-04-27T11:15:05.772Z,177.93
2023-04-27T11:16:05.790Z,173.36
2023-04-27T11:17:05.774Z,168.38
2023-04-27T11:18:05.772Z,168.85
2023-04-27T11:19:05.724Z,165.41
2023-04-27T11:20:05.718Z,165.95
2023-04-27T11:21:05.722Z,165.21
2023-04-27T11:22:05.690Z,164.65
2023-04-27T11:23:05.684Z,166.69
2023-04-27T11:24:05.708Z,157.45
2023-04-27T11:25:05.655Z,157.51
2023-04-27T11:26:05.648Z,158.45
2023-04-27T11:27:05.631Z,152.44
2023-04-27T11:28:05.625Z,147.37
2023-04-27T11:29:05.712Z,136.74
2023-04-27T11:30:05.600Z,125.36
2023-04-27T11:31:05.608Z,123.66
2023-04-27T11:32:05.787Z,121.17
2023-04-27T11:33:05.739Z,109.73
2023-04-27T11:34:05.700Z,94.85
2023-04-27T11:35:05.737Z,88.77
2023-04-27T11:36:05.737Z,81.55
2023-04-27T11:37:14.692Z,76.58
2023-04-27T11:38:06.695Z,67.16
2023-04-27T11:39:05.745Z,61.65
2023-04-27T11:40:05.678Z,62.37
2023-04-27T11:41:05.662Z,55.44
2023-04-27T11:42:05.659Z,55.17
2023-04-27T11:43:05.650Z,48.15
2023-04-27T11:44:05.617Z,44.01
2023-04-27T11:45:05.658Z,41.27
2023-04-27T11:46:05.603Z,36.80
2023-04-27T11:47:05.624Z,30.66
2023-04-27T11:48:05.636Z,28.45
2023-04-27T11:49:05.597Z,25.00
2023-04-27T11:50:05.612Z,25.00
2023-04-27T11:51:05.598Z,27.66
2023-04-27T11:52:05.565Z,39.35
2023-04-27T11:53:05.568Z,43.25
2023-04-27T11:54:05.543Z,64.71
2023-04-27T11:55:05.540Z,85.09
2023-04-27T11:56:05.706Z,86.21
2023-04-27T11:57:05.539Z,89.18
2023-04-27T11:58:05.530Z,95.65
2023-04-27T11:59:05.573Z,104.28
2023-04-27T12:00:05.620Z,113.85
2023-04-27T12:01:05.714Z,118.22
2023-04-27T12:02:05.758Z,118.42
2023-04-27T12:03:05.809Z,120.41
2023-04-27T12:04:05.768Z,124.62
2023-04-27T12:05:05.740Z,132.32
2023-04-27T12:07:05.622Z,154.45
2023-04-27T12:08:05.618Z,160.69
2023-04-27T12:09:05.626Z,161.59
2023-04-27T12:10:05.588Z,169.20
2023-04-27T12:11:05.588Z,173.95
2023-04-27T12:12:05.564Z,174.74
2023-04-27T12:13:05.563Z,175.44
2023-04-27T12:14:05.557Z,174.66
2023-04-27T12:15:05.528Z,174.42
2023-04-27T12:16:05.532Z,176.78
2023-04-27T12:17:05.587Z,176.82
2023-04-27T12:18:05.519Z,178.26
2023-04-27T12:19:05.497Z,180.94
2023-04-27T12:20:05.476Z,183.02
2023-04-27T12:21:07.018Z,183.28
2023-04-27T12:22:05.474Z,183.34
2023-04-27T12:23:05.449Z,183.53
2023-04-27T12:24:05.416Z,184.02
2023-04-27T12:25:05.417Z,182.29
2023-04-27T12:26:05.420Z,180.73
2023-04-27T12:27:05.407Z,183.07
2023-04-27T12:28:05.382Z,183.09
2023-04-27T12:29:05.354Z,183.34
2023-04-27T12:30:05.349Z,184.14
2023-04-27T12:31:05.421Z,186.37
2023-04-27T12:32:05.410Z,187.50
2023-04-27T12:33:05.396Z,187.51
2023-04-27T12:34:05.321Z,185.96
2023-04-27T12:35:05.316Z,184.63
2023-04-27T12:36:05.287Z,186.69
2023-04-27T12:37:05.289Z,187.08
2023-04-27T12:38:05.265Z,187.19
2023-04-27T12:39:05.257Z,187.89
2023-04-27T12:40:05.239Z,188.57
2023-04-27T12:41:05.232Z,189.31